<?xml version="1.0" encoding="UTF-8" standalone="no" ?>
<gpx xmlns="http://www.topografix.com/GPX/1/1" xmlns:xsi="http://www.w3.org/2001/XMLSchema-instance" xsi:schemaLocation="http://www.topografix.com/GPX/1/1 http://www.topografix.com/GPX/1/1/gpx.xsd" version="1.1" creator="VisuGPX - https://www.visugpx.com">
  <metadata>
    <name>PUJAUDRAN Ouest 7.5 Km AV</name>
    <desc><![CDATA[
Total: 7.5km]]></desc>
  </metadata>
  <trk>
    <name><![CDATA[PUJAUDRAN Ouest 7.5 Km AV]]></name>
    <trkseg>
      <trkpt lat="43.59127" lon="1.14955">
        <ele>301.8</ele>
        <time>2020-06-06T08:13:50Z</time>
      </trkpt>
      <trkpt lat="43.59127" lon="1.14936">
        <ele>301.8</ele>
        <time>2020-06-06T08:14:01Z</time>
      </trkpt>
      <trkpt lat="43.5911" lon="1.14927">
        <ele>301.6</ele>
        <time>2020-06-06T08:14:15Z</time>
      </trkpt>
      <trkpt lat="43.59091" lon="1.14917">
        <ele>301.2</ele>
        <time>2020-06-06T08:14:32Z</time>
      </trkpt>
      <trkpt lat="43.59135" lon="1.14779">
        <ele>300.4</ele>
        <time>2020-06-06T08:16:00Z</time>
      </trkpt>
      <trkpt lat="43.59152" lon="1.14723">
        <ele>297.1</ele>
        <time>2020-06-06T08:16:35Z</time>
      </trkpt>
      <trkpt lat="43.59156" lon="1.14652">
        <ele>289.8</ele>
        <time>2020-06-06T08:17:16Z</time>
      </trkpt>
      <trkpt lat="43.59131" lon="1.14586">
        <ele>286.8</ele>
        <time>2020-06-06T08:18:00Z</time>
      </trkpt>
      <trkpt lat="43.59122" lon="1.14529">
        <ele>281.3</ele>
        <time>2020-06-06T08:18:33Z</time>
      </trkpt>
      <trkpt lat="43.59126" lon="1.14492">
        <ele>276.1</ele>
        <time>2020-06-06T08:18:56Z</time>
      </trkpt>
      <trkpt lat="43.59177" lon="1.14477">
        <ele>267.5</ele>
        <time>2020-06-06T08:19:37Z</time>
      </trkpt>
      <trkpt lat="43.59219" lon="1.1449">
        <ele>266.6</ele>
        <time>2020-06-06T08:20:12Z</time>
      </trkpt>
      <trkpt lat="43.59281" lon="1.14436">
        <ele>261.4</ele>
        <time>2020-06-06T08:21:11Z</time>
      </trkpt>
      <trkpt lat="43.5935" lon="1.14341">
        <ele>250.9</ele>
        <time>2020-06-06T08:22:28Z</time>
      </trkpt>
      <trkpt lat="43.59353" lon="1.14337">
        <ele>251</ele>
        <time>2020-06-06T08:22:32Z</time>
      </trkpt>
      <trkpt lat="43.59416" lon="1.1425">
        <ele>239.2</ele>
        <time>2020-06-06T08:23:43Z</time>
      </trkpt>
      <trkpt lat="43.59469" lon="1.14172">
        <ele>235.8</ele>
        <time>2020-06-06T08:24:45Z</time>
      </trkpt>
      <trkpt lat="43.59509" lon="1.14099">
        <ele>228.3</ele>
        <time>2020-06-06T08:25:38Z</time>
      </trkpt>
      <trkpt lat="43.59535" lon="1.14042">
        <ele>223.6</ele>
        <time>2020-06-06T08:26:18Z</time>
      </trkpt>
      <trkpt lat="43.5957" lon="1.14">
        <ele>219.7</ele>
        <time>2020-06-06T08:26:55Z</time>
      </trkpt>
      <trkpt lat="43.59595" lon="1.13983">
        <ele>219.5</ele>
        <time>2020-06-06T08:27:17Z</time>
      </trkpt>
      <trkpt lat="43.59603" lon="1.1396">
        <ele>219.6</ele>
        <time>2020-06-06T08:27:32Z</time>
      </trkpt>
      <trkpt lat="43.59583" lon="1.1395">
        <ele>219.6</ele>
        <time>2020-06-06T08:27:49Z</time>
      </trkpt>
      <trkpt lat="43.59567" lon="1.13942">
        <ele>219.7</ele>
        <time>2020-06-06T08:28:02Z</time>
      </trkpt>
      <trkpt lat="43.59568" lon="1.13925">
        <ele>219.3</ele>
        <time>2020-06-06T08:28:13Z</time>
      </trkpt>
      <trkpt lat="43.5957" lon="1.13913">
        <ele>221.4</ele>
        <time>2020-06-06T08:28:20Z</time>
      </trkpt>
      <trkpt lat="43.59575" lon="1.13913">
        <ele>220.5</ele>
        <time>2020-06-06T08:28:24Z</time>
      </trkpt>
      <trkpt lat="43.59618" lon="1.13891">
        <ele>225.7</ele>
        <time>2020-06-06T08:29:00Z</time>
      </trkpt>
      <trkpt lat="43.59651" lon="1.13895">
        <ele>225.6</ele>
        <time>2020-06-06T08:29:27Z</time>
      </trkpt>
      <trkpt lat="43.59696" lon="1.13907">
        <ele>227.5</ele>
        <time>2020-06-06T08:30:04Z</time>
      </trkpt>
      <trkpt lat="43.59746" lon="1.13918">
        <ele>223.5</ele>
        <time>2020-06-06T08:30:44Z</time>
      </trkpt>
      <trkpt lat="43.598" lon="1.13919">
        <ele>220.3</ele>
        <time>2020-06-06T08:31:28Z</time>
      </trkpt>
      <trkpt lat="43.59853" lon="1.1391">
        <ele>224.8</ele>
        <time>2020-06-06T08:32:10Z</time>
      </trkpt>
      <trkpt lat="43.59886" lon="1.13897">
        <ele>227</ele>
        <time>2020-06-06T08:32:38Z</time>
      </trkpt>
      <trkpt lat="43.59914" lon="1.13871">
        <ele>228.7</ele>
        <time>2020-06-06T08:33:05Z</time>
      </trkpt>
      <trkpt lat="43.59918" lon="1.13816">
        <ele>235.8</ele>
        <time>2020-06-06T08:33:37Z</time>
      </trkpt>
      <trkpt lat="43.59913" lon="1.13764">
        <ele>239.2</ele>
        <time>2020-06-06T08:34:07Z</time>
      </trkpt>
      <trkpt lat="43.59907" lon="1.13694">
        <ele>245</ele>
        <time>2020-06-06T08:34:48Z</time>
      </trkpt>
      <trkpt lat="43.59902" lon="1.13658">
        <ele>247.2</ele>
        <time>2020-06-06T08:35:09Z</time>
      </trkpt>
      <trkpt lat="43.59903" lon="1.13626">
        <ele>247.2</ele>
        <time>2020-06-06T08:35:28Z</time>
      </trkpt>
      <trkpt lat="43.59856" lon="1.13604">
        <ele>248.1</ele>
        <time>2020-06-06T08:36:07Z</time>
      </trkpt>
      <trkpt lat="43.59872" lon="1.1352">
        <ele>246.3</ele>
        <time>2020-06-06T08:36:58Z</time>
      </trkpt>
      <trkpt lat="43.598" lon="1.13488">
        <ele>254.8</ele>
        <time>2020-06-06T08:37:59Z</time>
      </trkpt>
      <trkpt lat="43.59743" lon="1.1347">
        <ele>266.2</ele>
        <time>2020-06-06T08:38:46Z</time>
      </trkpt>
      <trkpt lat="43.59695" lon="1.13454">
        <ele>268.9</ele>
        <time>2020-06-06T08:39:25Z</time>
      </trkpt>
      <trkpt lat="43.59647" lon="1.13436">
        <ele>276.9</ele>
        <time>2020-06-06T08:40:05Z</time>
      </trkpt>
      <trkpt lat="43.59621" lon="1.13425">
        <ele>279</ele>
        <time>2020-06-06T08:40:27Z</time>
      </trkpt>
      <trkpt lat="43.59594" lon="1.13435">
        <ele>281.2</ele>
        <time>2020-06-06T08:40:50Z</time>
      </trkpt>
      <trkpt lat="43.59569" lon="1.13491">
        <ele>279.5</ele>
        <time>2020-06-06T08:41:27Z</time>
      </trkpt>
      <trkpt lat="43.59562" lon="1.13496">
        <ele>279</ele>
        <time>2020-06-06T08:41:34Z</time>
      </trkpt>
      <trkpt lat="43.59527" lon="1.13459">
        <ele>277.1</ele>
        <time>2020-06-06T08:42:10Z</time>
      </trkpt>
      <trkpt lat="43.59494" lon="1.13427">
        <ele>271.1</ele>
        <time>2020-06-06T08:42:41Z</time>
      </trkpt>
      <trkpt lat="43.59461" lon="1.13391">
        <ele>268.5</ele>
        <time>2020-06-06T08:43:15Z</time>
      </trkpt>
      <trkpt lat="43.59445" lon="1.1336">
        <ele>267.7</ele>
        <time>2020-06-06T08:43:37Z</time>
      </trkpt>
      <trkpt lat="43.59479" lon="1.13316">
        <ele>271.7</ele>
        <time>2020-06-06T08:44:15Z</time>
      </trkpt>
      <trkpt lat="43.59455" lon="1.13264">
        <ele>269.9</ele>
        <time>2020-06-06T08:44:50Z</time>
      </trkpt>
      <trkpt lat="43.5942" lon="1.13161">
        <ele>271.8</ele>
        <time>2020-06-06T08:45:56Z</time>
      </trkpt>
      <trkpt lat="43.59412" lon="1.13114">
        <ele>273.3</ele>
        <time>2020-06-06T08:46:24Z</time>
      </trkpt>
      <trkpt lat="43.59427" lon="1.13063">
        <ele>276.7</ele>
        <time>2020-06-06T08:46:57Z</time>
      </trkpt>
      <trkpt lat="43.59396" lon="1.12966">
        <ele>285.8</ele>
        <time>2020-06-06T08:47:58Z</time>
      </trkpt>
      <trkpt lat="43.59351" lon="1.12902">
        <ele>290.4</ele>
        <time>2020-06-06T08:48:50Z</time>
      </trkpt>
      <trkpt lat="43.59317" lon="1.12846">
        <ele>292.8</ele>
        <time>2020-06-06T08:49:32Z</time>
      </trkpt>
      <trkpt lat="43.59291" lon="1.12807">
        <ele>291</ele>
        <time>2020-06-06T08:50:03Z</time>
      </trkpt>
      <trkpt lat="43.59275" lon="1.12786">
        <ele>290.1</ele>
        <time>2020-06-06T08:50:21Z</time>
      </trkpt>
      <trkpt lat="43.59242" lon="1.12745">
        <ele>285.3</ele>
        <time>2020-06-06T08:50:56Z</time>
      </trkpt>
      <trkpt lat="43.59227" lon="1.12694">
        <ele>279</ele>
        <time>2020-06-06T08:51:29Z</time>
      </trkpt>
      <trkpt lat="43.59183" lon="1.127">
        <ele>278.3</ele>
        <time>2020-06-06T08:52:04Z</time>
      </trkpt>
      <trkpt lat="43.59154" lon="1.12741">
        <ele>277.5</ele>
        <time>2020-06-06T08:52:37Z</time>
      </trkpt>
      <trkpt lat="43.59145" lon="1.12807">
        <ele>276.2</ele>
        <time>2020-06-06T08:53:16Z</time>
      </trkpt>
      <trkpt lat="43.59085" lon="1.12852">
        <ele>269.8</ele>
        <time>2020-06-06T08:54:10Z</time>
      </trkpt>
      <trkpt lat="43.5905" lon="1.1285">
        <ele>268.7</ele>
        <time>2020-06-06T08:54:39Z</time>
      </trkpt>
      <trkpt lat="43.59" lon="1.1282">
        <ele>273.6</ele>
        <time>2020-06-06T08:55:23Z</time>
      </trkpt>
      <trkpt lat="43.58983" lon="1.12809">
        <ele>280.1</ele>
        <time>2020-06-06T08:55:38Z</time>
      </trkpt>
      <trkpt lat="43.58952" lon="1.12777">
        <ele>283.1</ele>
        <time>2020-06-06T08:56:09Z</time>
      </trkpt>
      <trkpt lat="43.58916" lon="1.12754">
        <ele>288.1</ele>
        <time>2020-06-06T08:56:40Z</time>
      </trkpt>
      <trkpt lat="43.58862" lon="1.12745">
        <ele>290.3</ele>
        <time>2020-06-06T08:57:24Z</time>
      </trkpt>
      <trkpt lat="43.58803" lon="1.12762">
        <ele>294.2</ele>
        <time>2020-06-06T08:58:12Z</time>
      </trkpt>
      <trkpt lat="43.5872" lon="1.12745">
        <ele>284.9</ele>
        <time>2020-06-06T08:59:19Z</time>
      </trkpt>
      <trkpt lat="43.58684" lon="1.12732">
        <ele>282.1</ele>
        <time>2020-06-06T08:59:49Z</time>
      </trkpt>
      <trkpt lat="43.58657" lon="1.1273">
        <ele>281.7</ele>
        <time>2020-06-06T09:00:11Z</time>
      </trkpt>
      <trkpt lat="43.5861" lon="1.12745">
        <ele>283.9</ele>
        <time>2020-06-06T09:00:49Z</time>
      </trkpt>
      <trkpt lat="43.58554" lon="1.12816">
        <ele>285.2</ele>
        <time>2020-06-06T09:01:50Z</time>
      </trkpt>
      <trkpt lat="43.5852" lon="1.1284">
        <ele>283.6</ele>
        <time>2020-06-06T09:02:21Z</time>
      </trkpt>
      <trkpt lat="43.58481" lon="1.12816">
        <ele>288.7</ele>
        <time>2020-06-06T09:02:55Z</time>
      </trkpt>
      <trkpt lat="43.5844" lon="1.12797">
        <ele>288.8</ele>
        <time>2020-06-06T09:03:29Z</time>
      </trkpt>
      <trkpt lat="43.58383" lon="1.12848">
        <ele>286.2</ele>
        <time>2020-06-06T09:04:24Z</time>
      </trkpt>
      <trkpt lat="43.58332" lon="1.12902">
        <ele>292</ele>
        <time>2020-06-06T09:05:16Z</time>
      </trkpt>
      <trkpt lat="43.58287" lon="1.12973">
        <ele>294.8</ele>
        <time>2020-06-06T09:06:10Z</time>
      </trkpt>
      <trkpt lat="43.58251" lon="1.13037">
        <ele>297.8</ele>
        <time>2020-06-06T09:06:57Z</time>
      </trkpt>
      <trkpt lat="43.58214" lon="1.13106">
        <ele>300.7</ele>
        <time>2020-06-06T09:07:47Z</time>
      </trkpt>
      <trkpt lat="43.58181" lon="1.13213">
        <ele>298.9</ele>
        <time>2020-06-06T09:08:55Z</time>
      </trkpt>
      <trkpt lat="43.58173" lon="1.13241">
        <ele>299.3</ele>
        <time>2020-06-06T09:09:12Z</time>
      </trkpt>
      <trkpt lat="43.58164" lon="1.13433">
        <ele>304.1</ele>
        <time>2020-06-06T09:11:04Z</time>
      </trkpt>
      <trkpt lat="43.58164" lon="1.13438">
        <ele>304.1</ele>
        <time>2020-06-06T09:11:07Z</time>
      </trkpt>
      <trkpt lat="43.58161" lon="1.13522">
        <ele>302.9</ele>
        <time>2020-06-06T09:11:56Z</time>
      </trkpt>
      <trkpt lat="43.58178" lon="1.13627">
        <ele>300.7</ele>
        <time>2020-06-06T09:12:59Z</time>
      </trkpt>
      <trkpt lat="43.58203" lon="1.13728">
        <ele>302.7</ele>
        <time>2020-06-06T09:14:01Z</time>
      </trkpt>
      <trkpt lat="43.58251" lon="1.13854">
        <ele>305.1</ele>
        <time>2020-06-06T09:15:24Z</time>
      </trkpt>
      <trkpt lat="43.58259" lon="1.13875">
        <ele>305.2</ele>
        <time>2020-06-06T09:15:37Z</time>
      </trkpt>
      <trkpt lat="43.58255" lon="1.13898">
        <ele>305.1</ele>
        <time>2020-06-06T09:15:51Z</time>
      </trkpt>
      <trkpt lat="43.58274" lon="1.13954">
        <ele>305.6</ele>
        <time>2020-06-06T09:16:27Z</time>
      </trkpt>
      <trkpt lat="43.58294" lon="1.14015">
        <ele>305.3</ele>
        <time>2020-06-06T09:17:06Z</time>
      </trkpt>
      <trkpt lat="43.58321" lon="1.14066">
        <ele>304.1</ele>
        <time>2020-06-06T09:17:42Z</time>
      </trkpt>
      <trkpt lat="43.58339" lon="1.14091">
        <ele>303.3</ele>
        <time>2020-06-06T09:18:03Z</time>
      </trkpt>
      <trkpt lat="43.58363" lon="1.14115">
        <ele>303.9</ele>
        <time>2020-06-06T09:18:26Z</time>
      </trkpt>
      <trkpt lat="43.58388" lon="1.14139">
        <ele>304.2</ele>
        <time>2020-06-06T09:18:51Z</time>
      </trkpt>
      <trkpt lat="43.58421" lon="1.14174">
        <ele>304.5</ele>
        <time>2020-06-06T09:19:24Z</time>
      </trkpt>
      <trkpt lat="43.58445" lon="1.14186">
        <ele>303.6</ele>
        <time>2020-06-06T09:19:44Z</time>
      </trkpt>
      <trkpt lat="43.5847" lon="1.1421">
        <ele>303.1</ele>
        <time>2020-06-06T09:20:09Z</time>
      </trkpt>
      <trkpt lat="43.58488" lon="1.14228">
        <ele>302.8</ele>
        <time>2020-06-06T09:20:27Z</time>
      </trkpt>
      <trkpt lat="43.58515" lon="1.1424">
        <ele>300.6</ele>
        <time>2020-06-06T09:20:50Z</time>
      </trkpt>
      <trkpt lat="43.58515" lon="1.14251">
        <ele>301.5</ele>
        <time>2020-06-06T09:20:56Z</time>
      </trkpt>
      <trkpt lat="43.58511" lon="1.14264">
        <ele>301.5</ele>
        <time>2020-06-06T09:21:04Z</time>
      </trkpt>
      <trkpt lat="43.5854" lon="1.14299">
        <ele>301.4</ele>
        <time>2020-06-06T09:21:35Z</time>
      </trkpt>
      <trkpt lat="43.58622" lon="1.14344">
        <ele>303.2</ele>
        <time>2020-06-06T09:22:46Z</time>
      </trkpt>
      <trkpt lat="43.58694" lon="1.14387">
        <ele>302.6</ele>
        <time>2020-06-06T09:23:48Z</time>
      </trkpt>
      <trkpt lat="43.58784" lon="1.14441">
        <ele>300.1</ele>
        <time>2020-06-06T09:25:07Z</time>
      </trkpt>
      <trkpt lat="43.58787" lon="1.14442">
        <ele>300</ele>
        <time>2020-06-06T09:25:09Z</time>
      </trkpt>
      <trkpt lat="43.5886" lon="1.14481">
        <ele>298.4</ele>
        <time>2020-06-06T09:26:12Z</time>
      </trkpt>
      <trkpt lat="43.58938" lon="1.14541">
        <ele>299.7</ele>
        <time>2020-06-06T09:27:23Z</time>
      </trkpt>
      <trkpt lat="43.58869" lon="1.1464">
        <ele>302.8</ele>
        <time>2020-06-06T09:28:42Z</time>
      </trkpt>
      <trkpt lat="43.58765" lon="1.14751">
        <ele>299.5</ele>
        <time>2020-06-06T09:30:28Z</time>
      </trkpt>
      <trkpt lat="43.58729" lon="1.14818">
        <ele>296.5</ele>
        <time>2020-06-06T09:31:16Z</time>
      </trkpt>
      <trkpt lat="43.58707" lon="1.14891">
        <ele>293</ele>
        <time>2020-06-06T09:32:02Z</time>
      </trkpt>
      <trkpt lat="43.58692" lon="1.15015">
        <ele>289</ele>
        <time>2020-06-06T09:33:15Z</time>
      </trkpt>
      <trkpt lat="43.58676" lon="1.1514">
        <ele>285</ele>
        <time>2020-06-06T09:34:29Z</time>
      </trkpt>
      <trkpt lat="43.58673" lon="1.15191">
        <ele>281.9</ele>
        <time>2020-06-06T09:34:59Z</time>
      </trkpt>
      <trkpt lat="43.58675" lon="1.15241">
        <ele>278.7</ele>
        <time>2020-06-06T09:35:28Z</time>
      </trkpt>
      <trkpt lat="43.58692" lon="1.152">
        <ele>280.6</ele>
        <time>2020-06-06T09:35:55Z</time>
      </trkpt>
      <trkpt lat="43.58718" lon="1.15161">
        <ele>283.1</ele>
        <time>2020-06-06T09:36:26Z</time>
      </trkpt>
      <trkpt lat="43.58792" lon="1.15027">
        <ele>281.8</ele>
        <time>2020-06-06T09:38:04Z</time>
      </trkpt>
      <trkpt lat="43.58818" lon="1.14981">
        <ele>284.3</ele>
        <time>2020-06-06T09:38:38Z</time>
      </trkpt>
      <trkpt lat="43.5893" lon="1.15039">
        <ele>290.1</ele>
        <time>2020-06-06T09:40:14Z</time>
      </trkpt>
      <trkpt lat="43.58959" lon="1.15054">
        <ele>291.8</ele>
        <time>2020-06-06T09:40:39Z</time>
      </trkpt>
      <trkpt lat="43.58995" lon="1.1506">
        <ele>294.1</ele>
        <time>2020-06-06T09:41:08Z</time>
      </trkpt>
      <trkpt lat="43.5904" lon="1.15088">
        <ele>299.7</ele>
        <time>2020-06-06T09:41:47Z</time>
      </trkpt>
      <trkpt lat="43.59101" lon="1.1511">
        <ele>300.8</ele>
        <time>2020-06-06T09:42:37Z</time>
      </trkpt>
      <trkpt lat="43.59118" lon="1.15056">
        <ele>301.3</ele>
        <time>2020-06-06T09:43:11Z</time>
      </trkpt>
      <trkpt lat="43.59135" lon="1.15005">
        <ele>300</ele>
        <time>2020-06-06T09:43:44Z</time>
      </trkpt>
    </trkseg>
  </trk>
</gpx>